KLBF/LBF METAR and TAF weather

Enter ICAO airport designator
Station Type Date Time Source
KLBF METAR 2020/12/05 04:53 UTC NOAA

KLBF 050453Z AUTO 30006KT 10SM CLR M02/M08 A3022 RMK AO2 SLP253 T10221078


Station Type Date Time Source
KLBF Decoded METAR 2020/12/05 04:53 UTC NOAA

NORTH PLATTE REGIONAL AIRPORT , NE, United States (KLBF) 41-07N 100-40W 847M
Dec 04, 2020 - 11:53 PM EST / 2020.12.05 0453 UTC
Wind: from the WNW (300 degrees) at 7 MPH (6 KT):0
Visibility: 10 mile(s):0
Sky conditions: clear
Temperature: 28.0 F (-2.2 C)
Windchill: 21 F (-6 C):1
Dew Point: 18.0 F (-7.8 C)
Relative Humidity: 65%
Pressure (altimeter): 30.22 in. Hg (1023 hPa)
ob: KLBF 050453Z AUTO 30006KT 10SM CLR M02/M08 A3022 RMK AO2 SLP253 T10221078
cycle: 5

Station Type Date Time Source
KLBF TAF 2020/12/04 18:22 UTC NOAA

TAF KLBF 041720Z 0418/0518 29011G20KT P6SM SKC
FM050600 31008KT P6SM SKC WS020/35040KT
FM051100 32008KT P6SM SKC

Example: see airport list